Time;durP1;ratioP1;P1;durP2;ratioP2;P2;SDS_P1;SDS_P2;PMS_P1;PMS_P2;Temp;Humidity;BMP_temperature;BMP_pressure;BME280_temperature;BME280_humidity;BME280_pressure;Samples;Min_cycle;Max_cycle;Signal;HPM_P1;HPM_P2
2023/03/28 00:00:29;;;;;;;3.33;1.60;;;;;;;0.14;81.58;102617.34;4973954;28;20026;-87
2023/03/28 00:02:55;;;;;;;3.20;1.50;;;;;;;0.13;81.92;102617.25;4973931;28;20480;-88
2023/03/28 00:05:20;;;;;;;1.58;1.20;;;;;;;0.11;81.61;102618.84;4973575;28;20030;-86
2023/03/28 00:07:46;;;;;;;1.65;1.40;;;;;;;0.11;81.85;102618.84;4973353;28;20029;-88
2023/03/28 00:10:12;;;;;;;1.95;1.38;;;;;;;0.07;81.97;102615.25;4974402;28;20023;-87
2023/03/28 00:12:37;;;;;;;1.33;1.17;;;;;;;0.06;81.81;102621.13;4973581;28;20105;-88
2023/03/28 00:15:05;;;;;;;3.55;1.70;;;;;;;0.05;82.01;102624.47;4973361;28;20031;-87
2023/03/28 00:17:31;;;;;;;2.65;1.30;;;;;;;0.03;82.01;102615.00;4973700;28;20480;-88
2023/03/28 00:19:56;;;;;;;1.50;1.35;;;;;;;-0.01;82.18;102613.94;4972970;28;20117;-87
2023/03/28 00:22:22;;;;;;;2.75;1.50;;;;;;;-0.04;83.38;102623.97;4973679;28;20456;-87
2023/03/28 00:24:47;;;;;;;1.80;1.50;;;;;;;-0.09;83.59;102610.03;4973462;28;20058;-87
2023/03/28 00:27:14;;;;;;;3.10;1.65;;;;;;;-0.13;82.81;102609.00;4973568;28;20042;-87
2023/03/28 00:29:40;;;;;;;2.28;1.50;;;;;;;-0.16;83.20;102606.25;4974297;28;20027;-88
2023/03/28 00:32:05;;;;;;;1.60;1.50;;;;;;;-0.21;83.12;102600.91;4973739;28;20035;-87
2023/03/28 00:34:30;;;;;;;2.28;1.42;;;;;;;-0.24;83.24;102599.84;4976309;28;20468;-87
2023/03/28 00:36:56;;;;;;;4.00;1.90;;;;;;;-0.24;83.36;102610.06;4976863;28;20418;-87
2023/03/28 00:39:21;;;;;;;3.30;1.80;;;;;;;-0.27;83.25;102607.31;4977406;28;20043;-87
2023/03/28 00:41:46;;;;;;;1.90;1.60;;;;;;;-0.27;83.31;102612.41;4976149;28;20023;-86
2023/03/28 00:44:47;;;;;;;3.95;1.95;;;;;;;-0.27;83.29;102612.41;4977212;28;20027;-87
2023/03/28 00:47:24;;;;;;;2.53;1.60;;;;;;;-0.30;83.54;102607.16;4986104;23;20061;-86
2023/03/28 00:50:07;;;;;;;4.20;1.70;;;;;;;-0.35;83.30;102615.41;5015198;28;20112;-87
2023/03/28 00:52:41;;;;;;;1.73;1.50;;;;;;;-0.38;83.52;102605.03;5015933;28;20080;-87
2023/03/28 00:55:16;;;;;;;1.73;1.30;;;;;;;-0.40;83.31;102615.94;5013018;28;20414;-87
2023/03/28 00:57:43;;;;;;;1.70;1.60;;;;;;;-0.45;83.85;102620.78;5015670;28;20029;-87
2023/03/28 01:00:11;;;;;;;1.60;1.50;;;;;;;-0.45;83.55;102619.91;5015522;28;20033;-87
2023/03/28 01:02:40;;;;;;;1.60;1.50;;;;;;;-0.55;83.21;102605.72;5015340;28;20029;-87
2023/03/28 01:05:07;;;;;;;2.00;1.65;;;;;;;-0.51;83.76;102611.09;5015658;28;20029;-87
2023/03/28 01:07:39;;;;;;;3.05;1.55;;;;;;;-0.49;83.85;102617.16;4999402;28;20036;-87
2023/03/28 01:10:06;;;;;;;2.97;1.65;;;;;;;-0.52;83.84;102611.00;4995344;28;20042;-87
2023/03/28 01:12:34;;;;;;;;;;;;;;;-0.52;84.03;102613.56;4996455;28;20031;-87
2023/03/28 01:15:01;;;;;;;2.47;1.90;;;;;;;-0.55;83.90;102614.25;4995432;28;20282;-87
2023/03/28 01:17:27;;;;;;;;;;;;;;;-0.57;83.69;102612.41;4995757;28;20532;-87
2023/03/28 01:20:12;;;;;;;2.50;1.90;;;;;;;-0.60;83.70;102605.47;4995381;28;20003;-86
2023/03/28 01:23:07;;;;;;;2.00;1.80;;;;;;;-0.58;83.53;102606.44;5010355;28;20440;-87
2023/03/28 01:25:51;;;;;;;2.00;1.50;;;;;;;-0.60;83.50;102600.34;5015392;28;20038;-87
2023/03/28 01:28:34;;;;;;;3.35;1.85;;;;;;;-0.62;83.78;102600.25;5015105;28;20018;-87
2023/03/28 01:31:38;;;;;;;3.50;1.95;;;;;;;-0.67;84.95;102599.09;5013885;28;20092;-86
2023/03/28 01:34:19;;;;;;;3.88;1.80;;;;;;;-0.68;84.29;102601.59;5014545;28;20030;-87
2023/03/28 01:36:44;;;;;;;1.98;1.77;;;;;;;-0.70;84.13;102598.91;5013786;28;20501;-86
2023/03/28 01:39:42;;;;;;;1.88;1.63;;;;;;;-0.70;84.66;102603.16;5014894;28;20029;-87
2023/03/28 01:42:28;;;;;;;1.80;1.58;;;;;;;-0.75;84.11;102591.78;5014635;28;20025;-87
2023/03/28 01:44:56;;;;;;;2.38;1.80;;;;;;;-0.77;84.38;102591.72;5012924;28;20030;-87
2023/03/28 01:47:32;;;;;;;2.05;1.60;;;;;;;-0.79;84.42;102595.81;5013349;28;20056;-87
2023/03/28 01:50:18;;;;;;;2.85;1.77;;;;;;;-0.85;84.88;102586.16;5014300;28;20474;-86
2023/03/28 01:52:51;;;;;;;;;;;;;;;-0.92;87.70;102586.56;5014783;28;20072;-87
2023/03/28 01:55:48;;;;;;;2.75;1.70;;;;;;;-0.98;86.46;102581.09;5014364;28;20011;-86
2023/03/28 01:58:21;;;;;;;2.40;1.67;;;;;;;-1.03;86.79;102591.00;4980703;28;20037;-87
2023/03/28 02:00:57;;;;;;;1.98;1.77;;;;;;;-1.04;86.57;102590.94;5014008;28;20039;-87
2023/03/28 02:03:34;;;;;;;1.88;1.77;;;;;;;-1.04;85.53;102590.94;5013491;28;20034;-86
2023/03/28 02:06:03;;;;;;;3.22;2.13;;;;;;;-1.05;85.22;102590.03;5013438;28;20021;-87
2023/03/28 02:08:32;;;;;;;3.80;1.70;;;;;;;-1.05;85.51;102584.06;5014099;28;20033;-87
2023/03/28 02:10:57;;;;;;;2.58;1.80;;;;;;;-1.05;85.27;102589.16;5014082;28;20087;-86
2023/03/28 02:13:34;;;;;;;2.65;1.63;;;;;;;-1.03;85.61;102590.16;5013892;28;20030;-87
2023/03/28 02:16:01;;;;;;;2.10;1.65;;;;;;;-1.02;85.37;102592.78;5013689;28;20548;-87
2023/03/28 02:18:37;;;;;;;1.80;1.70;;;;;;;-1.03;85.81;102587.59;5013759;28;20046;-86
2023/03/28 02:21:08;;;;;;;2.33;1.60;;;;;;;-1.09;85.73;102583.88;5013958;28;20018;-87
2023/03/28 02:23:48;;;;;;;2.17;1.70;;;;;;;-1.09;85.27;102588.97;5014177;28;20269;-86
2023/03/28 02:26:13;;;;;;;2.45;1.85;;;;;;;-1.09;84.90;102583.00;5013475;28;20079;-87
2023/03/28 02:28:42;;;;;;;2.30;1.85;;;;;;;-1.09;85.82;102583.88;5013982;28;20033;-86
2023/03/28 02:31:12;;;;;;;1.70;1.60;;;;;;;-1.06;85.28;102589.94;5013000;28;20032;-87
2023/03/28 02:33:46;;;;;;;1.67;1.52;;;;;;;-1.09;85.75;102583.88;5013468;28;20128;-87
2023/03/28 02:36:26;;;;;;;2.10;1.65;;;;;;;-1.16;87.36;102575.75;5013902;28;20042;-87
2023/03/28 02:39:18;;;;;;;2.75;1.88;;;;;;;-1.17;86.81;102579.09;5013417;28;20026;-87
2023/03/28 02:42:05;;;;;;;2.55;1.80;;;;;;;-1.14;86.07;102585.28;5013383;28;20119;-87
2023/03/28 02:44:45;;;;;;;3.17;1.75;;;;;;;-1.17;86.75;102580.00;5013782;28;20080;-87
2023/03/28 02:47:14;;;;;;;2.20;1.80;;;;;;;-1.26;87.92;102584.53;5012881;28;20060;-87
2023/03/28 02:50:22;;;;;;;2.20;1.90;;;;;;;-1.28;87.90;102584.41;5013596;28;20030;-87
2023/03/28 02:53:26;;;;;;;2.67;2.00;;;;;;;-1.34;88.65;102580.59;4996675;28;20045;-86
2023/03/28 02:56:30;;;;;;;2.85;1.70;;;;;;;-1.36;87.84;102579.66;5010894;28;20049;-86
2023/03/28 02:59:00;;;;;;;2.72;2.10;;;;;;;-1.37;87.35;102572.81;5013248;28;20115;-86
2023/03/28 03:01:29;;;;;;;3.22;1.67;;;;;;;-1.36;86.96;102572.88;4993319;28;20041;-86
2023/03/28 03:03:55;;;;;;;2.90;1.92;;;;;;;-1.38;86.94;102573.59;4992964;28;20037;-86
2023/03/28 03:06:20;;;;;;;1.90;1.80;;;;;;;-1.34;86.81;102571.31;4993723;28;20022;-86
2023/03/28 03:08:46;;;;;;;1.67;1.58;;;;;;;-1.32;87.19;102571.41;4992699;28;20026;-86
2023/03/28 03:11:11;;;;;;;2.35;1.75;;;;;;;-1.35;87.64;102563.59;4993728;28;20467;-87
2023/03/28 03:13:36;;;;;;;1.70;1.60;;;;;;;-1.36;86.91;102569.47;4993666;28;20490;-86
2023/03/28 03:16:02;;;;;;;2.08;1.60;;;;;;;-1.34;86.87;102570.41;4992717;28;20022;-86
2023/03/28 03:18:28;;;;;;;2.17;1.67;;;;;;;-1.34;86.67;102565.31;4993612;28;20094;-86
2023/03/28 03:20:53;;;;;;;2.28;1.45;;;;;;;-1.34;86.84;102570.41;4992970;28;20026;-86
2023/03/28 03:23:19;;;;;;;2.63;1.73;;;;;;;-1.31;86.39;102568.97;4992835;28;20110;-86
2023/03/28 03:25:44;;;;;;;2.45;1.80;;;;;;;-1.31;86.25;102568.06;4993550;28;20019;-86
2023/03/28 03:28:12;;;;;;;2.53;1.92;;;;;;;-1.34;86.59;102570.41;4993759;28;20027;-86
2023/03/28 03:30:37;;;;;;;2.28;1.80;;;;;;;-1.34;86.89;102578.06;4992715;28;20058;-86
2023/03/28 03:33:04;;;;;;;3.95;2.00;;;;;;;-1.42;88.78;102570.84;4993214;28;20037;-86
2023/03/28 03:35:32;;;;;;;2.10;2.00;;;;;;;-1.46;88.67;102575.66;4993160;28;20031;-86
2023/03/28 03:37:58;;;;;;;2.50;1.80;;;;;;;-1.48;88.09;102583.22;5004612;23;20080;-86
2023/03/28 03:40:23;;;;;;;2.75;1.80;;;;;;;-1.51;88.44;102574.47;5032459;28;20080;-86
2023/03/28 03:42:49;;;;;;;1.70;1.60;;;;;;;-1.50;88.46;102586.41;5032281;28;20026;-85
2023/03/28 03:45:14;;;;;;;2.08;1.80;;;;;;;-1.53;88.29;102581.16;5032102;28;20025;-86
2023/03/28 03:47:40;;;;;;;3.33;1.90;;;;;;;-1.53;87.63;102584.56;5013952;28;20108;-87
2023/03/28 03:50:06;;;;;;;2.58;1.80;;;;;;;-1.50;87.91;102586.41;5011694;28;20026;-86
2023/03/28 03:52:32;;;;;;;2.13;1.70;;;;;;;-1.52;87.77;102575.28;5012787;28;20025;-86
2023/03/28 03:54:57;;;;;;;2.28;1.80;;;;;;;-1.53;87.73;102570.97;5012559;28;20044;-86
2023/03/28 03:57:22;;;;;;;2.17;1.70;;;;;;;-1.49;88.35;102578.00;5012240;28;20096;-86
2023/03/28 03:59:48;;;;;;;2.42;1.67;;;;;;;-1.48;88.70;102575.56;5012568;28;20026;-86
2023/03/28 04:02:13;;;;;;;1.85;1.75;;;;;;;-1.48;88.89;102577.22;5012650;28;20033;-86
2023/03/28 04:04:40;;;;;;;2.33;1.83;;;;;;;-1.48;89.63;102570.47;5011850;28;20038;-86
2023/03/28 04:07:05;;;;;;;2.30;2.08;;;;;;;-1.49;88.74;102571.25;5012438;28;20026;-86
2023/03/28 04:09:31;;;;;;;2.88;2.20;;;;;;;-1.47;88.07;102571.34;5016091;28;20044;-86
2023/03/28 04:12:01;;;;;;;3.25;2.13;;;;;;;-1.44;88.16;102574.09;5015678;28;20018;-86
2023/03/28 04:14:26;;;;;;;2.83;2.10;;;;;;;-1.43;87.78;102574.16;5016493;28;20021;-86
2023/03/28 04:16:52;;;;;;;2.53;2.00;;;;;;;-1.42;87.96;102575.94;5015934;28;20037;-86
2023/03/28 04:19:18;;;;;;;3.47;1.90;;;;;;;-1.42;88.39;102578.47;5015585;28;20025;-86
2023/03/28 04:21:47;;;;;;;3.38;2.10;;;;;;;-1.40;87.81;102579.47;5016088;28;20033;-86
2023/03/28 04:24:16;;;;;;;3.08;2.22;;;;;;;-1.36;87.44;102572.03;5016399;28;20026;-86
2023/03/28 04:26:48;;;;;;;3.88;2.30;;;;;;;-1.32;87.38;102573.94;5015474;28;20433;-86
2023/03/28 04:29:13;;;;;;;3.08;2.20;;;;;;;-1.31;87.48;102570.63;5016252;28;20018;-86
2023/03/28 04:31:39;;;;;;;4.45;2.33;;;;;;;-1.32;87.56;102567.19;5016155;28;20025;-86
2023/03/28 04:34:05;;;;;;;3.75;2.33;;;;;;;-1.30;87.60;102569.84;5015370;28;20543;-86
2023/03/28 04:36:31;;;;;;;3.40;2.38;;;;;;;-1.32;87.23;102566.31;5015976;28;20063;-86
2023/03/28 04:39:00;;;;;;;5.13;2.50;;;;;;;-1.33;87.45;102567.09;5015598;28;20542;-86
2023/03/28 04:41:32;;;;;;;4.88;2.60;;;;;;;-1.34;87.48;102570.41;5015195;28;20554;-86
2023/03/28 04:43:57;;;;;;;3.33;2.20;;;;;;;-1.29;87.93;102566.50;5015430;28;20429;-86
2023/03/28 04:46:31;;;;;;;3.13;2.30;;;;;;;-1.32;87.41;102559.56;5015044;28;20084;-86
2023/03/28 04:48:56;;;;;;;3.63;2.25;;;;;;;-1.31;87.83;102560.44;5020177;28;20401;-86
2023/03/28 04:51:22;;;;;;;5.20;2.47;;;;;;;-1.32;88.07;102566.31;5035503;28;20039;-86
2023/03/28 04:53:49;;;;;;;4.40;2.60;;;;;;;-1.29;87.98;102569.03;5034848;28;20022;-86
2023/03/28 04:56:15;;;;;;;4.90;2.70;;;;;;;-1.32;87.85;102563.75;5035479;28;20063;-86
2023/03/28 04:58:46;;;;;;;7.05;3.00;;;;;;;-1.29;87.98;102567.38;5035169;28;20026;-86
2023/03/28 05:01:12;;;;;;;5.10;2.58;;;;;;;-1.34;87.97;102560.22;5032804;28;20025;-86
2023/03/28 05:03:37;;;;;;;5.57;2.80;;;;;;;-1.41;87.89;102554.78;5035314;28;20394;-86
2023/03/28 05:06:06;;;;;;;4.97;2.50;;;;;;;-1.33;87.90;102573.06;5034723;28;20064;-86
2023/03/28 05:08:31;;;;;;;4.00;2.60;;;;;;;-1.36;88.02;102572.03;5034183;28;20517;-86
2023/03/28 05:10:57;;;;;;;3.65;2.60;;;;;;;-1.36;87.71;102584.75;5034895;28;20083;-86
2023/03/28 05:13:22;;;;;;;4.63;2.58;;;;;;;-1.38;87.96;102588.88;5033214;28;20029;-86
2023/03/28 05:15:48;;;;;;;4.35;2.70;;;;;;;-1.38;87.98;102586.31;5033712;28;20037;-86
2023/03/28 05:18:14;;;;;;;3.42;2.42;;;;;;;-1.37;87.53;102588.09;5035060;28;20022;-86
2023/03/28 05:20:40;;;;;;;4.47;2.70;;;;;;;-1.39;87.68;102590.50;5034909;28;20504;-87
2023/03/28 05:23:06;;;;;;;4.37;2.77;;;;;;;-1.40;87.89;102593.84;5034023;28;20025;-86
2023/03/28 05:25:32;;;;;;;4.57;2.70;;;;;;;-1.42;88.00;102593.75;5034899;28;20462;-86
2023/03/28 05:27:57;;;;;;;3.05;2.40;;;;;;;-1.43;88.63;102586.03;5034671;28;20030;-87
2023/03/28 05:30:22;;;;;;;3.67;2.50;;;;;;;-1.43;87.85;102589.44;5034189;28;20044;-87
2023/03/28 05:32:48;;;;;;;5.22;2.53;;;;;;;-1.48;87.77;102588.31;5034713;28;20029;-86
2023/03/28 05:35:16;;;;;;;3.13;2.30;;;;;;;-1.45;88.50;102593.56;5034893;28;20030;-86
2023/03/28 05:37:43;;;;;;;3.30;2.28;;;;;;;-1.50;88.23;102586.41;5033673;28;20124;-86
2023/03/28 05:40:13;;;;;;;3.25;2.42;;;;;;;-1.48;88.45;102597.59;5034220;28;20057;-84
2023/03/28 05:42:38;;;;;;;3.63;2.30;;;;;;;-1.48;88.34;102600.13;5033408;28;20030;-84
2023/03/28 05:45:06;;;;;;;4.07;2.45;;;;;;;-1.47;88.16;102604.44;5034046;28;20422;-84
2023/03/28 05:47:31;;;;;;;4.57;2.63;;;;;;;-1.48;88.61;102601.03;5034125;28;20032;-84
2023/03/28 05:49:57;;;;;;;3.88;2.60;;;;;;;-1.45;88.52;102603.75;5033007;28;20030;-84
2023/03/28 05:52:22;;;;;;;5.40;2.83;;;;;;;-1.47;88.32;102599.34;5034339;28;20041;-84
2023/03/28 05:54:47;;;;;;;5.13;2.95;;;;;;;-1.43;88.17;102603.88;5033848;28;20029;-85
2023/03/28 05:57:13;;;;;;;5.32;3.10;;;;;;;-1.45;88.45;102603.75;5031926;28;20033;-83
2023/03/28 05:59:39;;;;;;;5.50;2.90;;;;;;;-1.43;89.22;102598.78;5033587;28;20037;-84
2023/03/28 06:02:14;;;;;;;6.93;2.90;;;;;;;-1.39;89.31;102595.59;5034106;28;20105;-89
2023/03/28 06:04:41;;;;;;;5.13;2.75;;;;;;;-1.40;89.66;102604.94;5033398;28;20025;-87
2023/03/28 06:07:06;;;;;;;4.45;2.90;;;;;;;-1.38;89.24;102593.97;5033664;28;20104;-86
2023/03/28 06:09:33;;;;;;;4.68;2.63;;;;;;;-1.40;89.88;102586.19;5034326;28;20160;-87
2023/03/28 06:12:00;;;;;;;4.18;2.78;;;;;;;-1.36;91.09;102594.94;5014370;28;20026;-87
2023/03/28 06:14:25;;;;;;;5.18;2.83;;;;;;;-1.40;91.19;102589.66;5014558;28;20072;-87
2023/03/28 06:16:51;;;;;;;5.85;3.00;;;;;;;-1.34;91.83;102589.16;5013414;28;20038;-88
2023/03/28 06:19:16;;;;;;;6.03;3.20;;;;;;;-1.33;91.19;102583.28;5013883;28;20031;-87
2023/03/28 06:21:41;;;;;;;4.53;3.03;;;;;;;-1.28;90.69;102589.50;5014126;28;20079;-87
2023/03/28 06:24:09;;;;;;;6.57;2.97;;;;;;;-1.21;91.85;102582.25;5014217;28;20033;-88
2023/03/28 06:26:37;;;;;;;6.18;3.03;;;;;;;-1.14;91.19;102592.03;5013514;28;20045;-87
2023/03/28 06:29:03;;;;;;;4.95;3.13;;;;;;;-1.09;90.21;102599.16;5013997;28;20032;-87
2023/03/28 06:31:29;;;;;;;5.28;3.17;;;;;;;-1.00;90.29;102593.75;5013813;28;20100;-88
2023/03/28 06:33:54;;;;;;;6.32;3.15;;;;;;;-0.87;90.34;102589.41;5013469;28;20518;-87
2023/03/28 06:36:19;;;;;;;5.30;3.30;;;;;;;-0.78;90.33;102598.47;5013958;28;20514;-87
2023/03/28 06:38:45;;;;;;;6.75;3.33;;;;;;;-0.66;89.33;102605.06;5031055;28;20038;-87
2023/03/28 06:41:11;;;;;;;7.25;3.50;;;;;;;-0.57;89.73;102608.19;5033317;28;20032;-85
2023/03/28 06:43:37;;;;;;;4.85;3.10;;;;;;;-0.51;89.89;102603.44;5033233;28;20033;-87
2023/03/28 06:46:02;;;;;;;4.90;3.00;;;;;;;-0.43;90.51;102597.91;5032460;28;20029;-87
2023/03/28 06:48:30;;;;;;;5.32;3.10;;;;;;;-0.33;89.66;102605.28;5033540;28;20028;-87
2023/03/28 06:50:56;;;;;;;4.78;3.00;;;;;;;-0.26;89.97;102602.31;5031702;28;20378;-87
2023/03/28 06:53:25;;;;;;;5.17;3.20;;;;;;;-0.14;89.58;102598.72;5032597;28;20083;-87
2023/03/28 06:55:51;;;;;;;5.25;3.30;;;;;;;0.06;90.06;102598.16;5033388;28;20346;-87
2023/03/28 06:58:17;;;;;;;5.13;3.00;;;;;;;1.20;90.59;102597.41;5033543;28;20108;-88
2023/03/28 07:00:43;;;;;;;5.32;2.97;;;;;;;3.26;90.35;102593.38;5033036;28;20025;-87
2023/03/28 07:03:08;;;;;;;3.80;2.50;;;;;;;5.13;87.18;102597.22;5033263;28;20048;-87
2023/03/28 07:05:39;;;;;;;5.95;2.65;;;;;;;6.28;81.30;102599.31;5033258;28;20029;-88
2023/03/28 07:08:06;;;;;;;5.07;2.60;;;;;;;7.02;80.46;102598.91;5032582;28;20036;-89
2023/03/28 07:10:31;;;;;;;4.20;2.72;;;;;;;7.73;78.40;102608.47;5033495;28;20064;-89
2023/03/28 07:12:59;;;;;;;3.50;2.80;;;;;;;8.60;75.10;102610.53;5032822;28;20057;-89
2023/03/28 07:15:25;;;;;;;6.22;2.90;;;;;;;9.40;66.20;102613.78;5032916;28;20439;-89
2023/03/28 07:17:52;;;;;;;4.38;3.00;;;;;;;9.63;69.09;102600.38;5032511;28;20224;-89
2023/03/28 07:20:17;;;;;;;5.93;3.00;;;;;;;9.16;69.41;102611.63;5033532;28;20065;-90
2023/03/28 07:22:43;;;;;;;6.05;3.50;;;;;;;8.36;69.42;102618.56;5032907;28;20478;-89
2023/03/28 07:25:08;;;;;;;6.25;3.05;;;;;;;7.54;70.03;102612.31;5033329;28;20033;-89
2023/03/28 07:27:33;;;;;;;7.20;3.65;;;;;;;6.80;72.32;102623.22;5033528;28;20044;-89
2023/03/28 07:29:59;;;;;;;5.82;3.40;;;;;;;6.12;73.56;102618.59;5032288;28;20048;-89
2023/03/28 07:32:24;;;;;;;5.43;3.38;;;;;;;5.63;74.71;102621.25;5033253;28;20026;-88
2023/03/28 07:34:50;;;;;;;4.78;3.40;;;;;;;5.19;75.16;102618.03;5030275;28;20049;-89
2023/03/28 07:37:15;;;;;;;5.63;3.20;;;;;;;4.77;76.43;102621.69;5013505;28;20030;-89
2023/03/28 07:39:42;;;;;;;5.72;3.20;;;;;;;4.46;76.94;102621.38;5013177;28;20042;-89
2023/03/28 07:42:11;;;;;;;;;;;;;;;4.24;77.78;102629.94;5013667;28;20045;-88
2023/03/28 07:44:36;;;;;;;5.05;2.80;;;;;;;4.05;78.23;102620.63;5017851;28;19909;-89
2023/03/28 07:47:11;;;;;;;3.90;2.50;;;;;;;3.82;79.27;102605.16;5014000;28;20393;-89
2023/03/28 07:49:51;;;;;;;6.07;3.10;;;;;;;3.84;79.67;102623.19;5017559;28;20013;-90
2023/03/28 07:52:17;;;;;;;6.70;3.67;;;;;;;3.69;80.01;102611.47;5017497;28;20025;-90
2023/03/28 07:54:42;;;;;;;8.35;3.33;;;;;;;3.69;80.41;102624.31;5017747;28;20432;-89
2023/03/28 07:57:07;;;;;;;7.05;3.00;;;;;;;3.68;80.47;102619.13;5016823;28;20026;-90
2023/03/28 07:59:33;;;;;;;4.40;2.90;;;;;;;3.69;80.57;102615.75;5016849;28;20112;-90
2023/03/28 08:01:58;;;;;;;4.93;2.70;;;;;;;3.70;81.14;102614.94;5017109;28;20026;-91
2023/03/28 08:04:24;;;;;;;6.88;2.97;;;;;;;3.74;81.45;102621.06;5016801;28;20034;-90
2023/03/28 08:06:51;;;;;;;6.20;3.17;;;;;;;3.74;80.87;102618.50;5017226;28;20483;-90
2023/03/28 08:09:17;;;;;;;5.53;2.92;;;;;;;3.81;81.51;102623.06;5017344;28;20032;-90
2023/03/28 08:14:17;;;;;;;7.65;3.17;;;;;;;4.00;80.98;102629.84;4996255;28;20061;-90
2023/03/28 08:19:08;;;;;;;5.30;2.95;;;;;;;4.13;80.88;102623.50;5022290;23;20061;-90
2023/03/28 08:21:34;;;;;;;4.35;2.63;;;;;;;4.22;80.89;102625.56;5017366;28;20288;-91
2023/03/28 08:24:01;;;;;;;4.40;2.57;;;;;;;4.28;80.50;102620.66;5017155;28;20026;-91
2023/03/28 08:26:27;;;;;;;4.35;2.70;;;;;;;4.31;80.63;102623.34;5016567;28;20083;-91
2023/03/28 08:28:53;;;;;;;5.47;2.70;;;;;;;4.40;80.63;102626.28;5016862;28;20470;-90
2023/03/28 08:31:22;;;;;;;5.60;2.95;;;;;;;4.48;80.05;102624.91;5016424;28;20513;-90
2023/03/28 08:33:50;;;;;;;4.85;2.58;;;;;;;4.67;80.71;102625.59;5016561;28;20474;-91
2023/03/28 08:36:16;;;;;;;7.47;3.17;;;;;;;4.80;79.94;102624.34;5016615;28;20072;-91
2023/03/28 08:38:42;;;;;;;7.72;3.10;;;;;;;4.92;79.33;102611.94;5015919;28;20049;-88
2023/03/28 08:41:20;;;;;;;5.15;3.05;;;;;;;5.02;79.11;102607.13;5016478;28;20088;-91
2023/03/28 08:44:27;;;;;;;5.32;2.50;;;;;;;5.12;79.03;102613.50;5015957;28;20046;-81
2023/03/28 08:47:06;;;;;;;6.93;2.67;;;;;;;5.25;78.98;102610.53;5015480;28;20052;-88
2023/03/28 08:49:42;;;;;;;4.32;2.15;;;;;;;5.40;78.76;102605.03;5016670;28;20411;-90
2023/03/28 08:52:12;;;;;;;6.93;2.50;;;;;;;5.53;77.74;102607.22;5016230;28;20029;-90
2023/03/28 08:54:46;;;;;;;3.80;2.22;;;;;;;5.63;77.54;102607.53;5015399;28;20390;-90
2023/03/28 08:57:20;;;;;;;4.03;2.22;;;;;;;5.69;76.31;102603.44;5016142;28;20034;-90
2023/03/28 09:00:13;;;;;;;7.07;2.65;;;;;;;5.78;76.38;102602.00;5016192;28;20036;-88
2023/03/28 09:02:40;;;;;;;5.63;2.40;;;;;;;5.77;74.82;102606.28;5016485;28;20042;-90
2023/03/28 09:05:12;;;;;;;6.30;2.80;;;;;;;5.83;76.13;102603.03;5016168;28;20061;-90
2023/03/28 09:07:55;;;;;;;5.43;2.28;;;;;;;5.90;76.67;102597.25;5016097;28;20026;-90
2023/03/28 09:10:48;;;;;;;4.93;2.30;;;;;;;5.94;76.41;102595.63;5016508;28;20033;-90
2023/03/28 09:13:30;;;;;;;5.53;2.08;;;;;;;6.03;75.01;102601.09;5016207;28;20497;-90
2023/03/28 09:15:58;;;;;;;4.70;2.20;;;;;;;6.09;73.18;102595.28;4996239;28;20475;-90
2023/03/28 09:19:06;;;;;;;5.07;2.20;;;;;;;6.04;70.96;102597.72;4996390;28;20050;-90
2023/03/28 09:22:05;;;;;;;8.15;2.45;;;;;;;5.99;72.91;102594.09;4996606;28;20030;-90
2023/03/28 09:24:52;;;;;;;5.28;2.13;;;;;;;6.07;73.16;102600.41;4996840;28;20066;-90
2023/03/28 09:28:02;;;;;;;8.90;3.28;;;;;;;6.06;70.90;102595.19;4996794;28;20022;-90
2023/03/28 09:30:38;;;;;;;10.68;2.72;;;;;;;6.06;70.40;102593.50;4987996;28;20062;-90
2023/03/28 09:33:13;;;;;;;5.72;2.53;;;;;;;5.98;70.67;102597.50;4996161;28;20026;-90
2023/03/28 09:35:40;;;;;;;3.13;2.13;;;;;;;5.99;68.93;102586.38;4996223;28;20022;-90
2023/03/28 09:38:17;;;;;;;4.80;2.17;;;;;;;6.04;71.16;102582.25;4995908;28;20037;-91
2023/03/28 09:40:46;;;;;;;6.95;2.45;;;;;;;6.16;69.22;102586.94;4995706;28;20506;-91
2023/03/28 09:43:33;;;;;;;6.97;2.58;;;;;;;6.09;69.86;102585.84;4996178;28;20030;-90
2023/03/28 09:46:05;;;;;;;6.15;2.33;;;;;;;6.14;70.68;102581.69;4996133;28;20026;-90
2023/03/28 09:48:33;;;;;;;7.20;2.33;;;;;;;6.27;69.25;102579.50;4995991;28;20042;-90
2023/03/28 09:51:00;;;;;;;6.78;2.35;;;;;;;6.26;68.10;102570.91;4995477;28;20121;-91
2023/03/28 09:53:34;;;;;;;4.75;2.38;;;;;;;6.27;68.73;102561.47;4996062;28;20072;-91
2023/03/28 09:56:06;;;;;;;5.35;2.10;;;;;;;6.33;68.23;102570.25;4995577;28;20034;-91
2023/03/28 09:58:56;;;;;;;5.07;2.38;;;;;;;6.36;67.63;102563.44;4995722;28;20026;-91
2023/03/28 10:01:30;;;;;;;6.45;2.40;;;;;;;6.38;67.17;102554.91;4986183;28;20045;-90
2023/03/28 10:03:59;;;;;;;5.82;2.13;;;;;;;6.43;68.04;102555.06;4995128;28;20490;-90
2023/03/28 10:06:30;;;;;;;3.70;2.20;;;;;;;6.56;67.32;102553.72;4994698;28;20030;-91
2023/03/28 10:09:14;;;;;;;3.22;1.83;;;;;;;6.70;66.90;102546.38;4995625;28;20026;-90
2023/03/28 10:12:01;;;;;;;4.57;2.10;;;;;;;6.86;66.03;102545.97;4995730;28;20030;-91
2023/03/28 10:14:35;;;;;;;5.95;2.47;;;;;;;6.86;63.92;102537.34;4995903;28;20042;-90
2023/03/28 10:17:14;;;;;;;6.13;2.25;;;;;;;6.85;66.03;102523.59;4994979;28;20524;-91
2023/03/28 10:19:43;;;;;;;5.40;2.38;;;;;;;6.97;64.35;102532.50;4995363;28;20022;-91
2023/03/28 10:22:25;;;;;;;5.95;2.03;;;;;;;7.02;61.98;102533.47;4995172;28;20114;-90
2023/03/28 10:24:50;;;;;;;8.43;2.80;;;;;;;6.97;61.20;102530.75;4994984;28;20432;-91
2023/03/28 10:27:22;;;;;;;6.47;2.20;;;;;;;6.93;61.76;102524.66;4995538;28;20072;-91
2023/03/28 10:29:51;;;;;;;4.63;1.90;;;;;;;6.99;62.90;102523.06;4995131;28;20026;-91
2023/03/28 10:32:25;;;;;;;4.82;2.00;;;;;;;7.14;62.41;102520.03;4994821;28;20027;-91
2023/03/28 10:35:08;;;;;;;7.88;2.30;;;;;;;7.28;63.18;102520.38;4994943;28;20064;-91
2023/03/28 10:37:35;;;;;;;4.22;1.95;;;;;;;7.43;62.27;102505.22;4995435;28;20034;-91
2023/03/28 10:40:05;;;;;;;5.40;2.10;;;;;;;7.47;59.04;102511.38;4994971;28;20022;-90
2023/03/28 10:42:45;;;;;;;5.93;2.50;;;;;;;7.63;61.17;102507.44;4994416;28;20037;-90
2023/03/28 10:45:32;;;;;;;6.55;2.47;;;;;;;7.59;60.82;102506.50;4994551;28;20030;-90
2023/03/28 10:48:01;;;;;;;4.93;2.20;;;;;;;7.67;62.22;102486.88;4994951;28;20121;-90
2023/03/28 10:50:48;;;;;;;7.43;2.50;;;;;;;7.88;62.71;102494.22;4994759;28;20023;-91
2023/03/28 10:53:46;;;;;;;3.70;2.05;;;;;;;8.17;60.13;102485.38;4993091;28;20030;-91
2023/03/28 10:56:17;;;;;;;4.72;2.10;;;;;;;8.23;58.87;102487.22;4994777;28;20037;-91
2023/03/28 10:59:00;;;;;;;6.45;2.20;;;;;;;8.32;51.83;102485.69;4995145;28;20034;-90
2023/03/28 11:01:34;;;;;;;6.25;2.38;;;;;;;8.49;56.04;102482.63;4994784;28;20061;-90
2023/03/28 11:04:27;;;;;;;2.92;1.80;;;;;;;8.59;58.52;102478.47;4994497;28;20034;-91
2023/03/28 11:07:04;;;;;;;4.75;1.92;;;;;;;8.70;56.12;102482.16;4994295;28;20026;-89
2023/03/28 11:09:45;;;;;;;5.00;1.83;;;;;;;8.71;55.00;102478.72;4994440;28;20037;-89
2023/03/28 11:12:45;;;;;;;5.07;1.90;;;;;;;8.71;55.97;102464.91;4994226;28;20030;-89
2023/03/28 11:15:20;;;;;;;3.58;1.63;;;;;;;8.92;55.96;102452.34;4993760;28;20109;-90
2023/03/28 11:18:20;;;;;;;5.18;2.10;;;;;;;9.10;56.06;102445.72;4995535;28;20052;-83
2023/03/28 11:20:57;;;;;;;2.80;1.83;;;;;;;9.35;56.11;102439.22;5012511;28;20041;-80
2023/03/28 11:23:42;;;;;;;6.60;2.30;;;;;;;9.62;51.53;102430.13;5013997;28;20029;-90
2023/03/28 11:26:12;;;;;;;7.53;2.47;;;;;;;9.45;50.58;102432.47;5014324;28;20109;-91
2023/03/28 11:29:10;;;;;;;6.68;2.20;;;;;;;9.30;53.45;102433.09;5014596;28;20076;-84
2023/03/28 11:31:41;;;;;;;5.30;2.60;;;;;;;9.39;51.86;102422.03;5013540;28;20034;-87
2023/03/28 11:34:27;;;;;;;6.82;2.60;;;;;;;9.46;51.73;102426.44;5014789;28;20034;-94
2023/03/28 11:36:59;;;;;;;7.40;2.63;;;;;;;9.33;51.44;102415.03;5014283;28;20045;-92
2023/03/28 11:39:41;;;;;;;6.90;2.50;;;;;;;9.39;51.95;102409.06;5013990;28;20106;-88
2023/03/28 11:42:19;;;;;;;8.77;2.83;;;;;;;9.32;51.91;102410.69;5013125;28;20485;-93
2023/03/28 11:45:07;;;;;;;5.40;2.55;;;;;;;9.41;51.14;102407.34;5013781;28;20018;-93
2023/03/28 11:47:44;;;;;;;8.88;3.03;;;;;;;9.36;50.79;102396.06;5013386;28;20087;-90
2023/03/28 11:50:27;;;;;;;6.18;2.60;;;;;;;9.36;51.94;102396.91;5013321;28;20045;-77
2023/03/28 11:53:05;;;;;;;6.45;2.63;;;;;;;9.50;49.56;102380.69;5012503;28;20026;-88
2023/03/28 11:55:41;;;;;;;6.43;2.60;;;;;;;9.61;50.67;102373.06;5011638;28;20026;-78